Time;durP1;ratioP1;P1;durP2;ratioP2;P2;SDS_P1;SDS_P2;PMS_P1;PMS_P2;Temp;Humidity;BMP_temperature;BMP_pressure;BME280_temperature;BME280_humidity;BME280_pressure;Samples;Min_cycle;Max_cycle;Signal;HPM_P1;HPM_P2
2021/11/06 00:02:55;;;;;;;10.30;7.80;;;;;;;5.98;78.48;99643.98;235799;1192;24106;-73
2021/11/06 00:07:58;;;;;;;9.30;7.20;;;;;;;5.92;78.78;99650.82;235676;1193;24190;-73
2021/11/06 00:13:27;;;;;;;9.30;7.40;;;;;;;5.87;78.61;99644.91;235817;1193;24048;-74
2021/11/06 00:18:50;;;;;;;11.00;7.70;;;;;;;5.84;78.49;99644.01;235893;1199;24031;-75
2021/11/06 00:23:52;;;;;;;11.00;7.40;;;;;;;5.78;78.58;99644.43;235911;1199;24075;-73
2021/11/06 00:28:55;;;;;;;11.20;7.60;;;;;;;5.76;78.63;99657.98;235929;1199;24040;-74
2021/11/06 00:33:58;;;;;;;10.40;6.80;;;;;;;5.74;78.69;99655.39;235885;1196;24440;-74
2021/11/06 00:39:02;;;;;;;10.10;6.80;;;;;;;5.71;78.70;99654.43;235485;1199;24135;-75
2021/11/06 00:44:05;;;;;;;9.60;6.80;;;;;;;5.68;78.59;99656.48;236170;1199;22901;-75
2021/11/06 00:49:07;;;;;;;9.60;7.00;;;;;;;5.62;78.76;99654.04;235943;1193;25175;-75
2021/11/06 00:54:10;;;;;;;12.10;7.80;;;;;;;5.56;78.81;99657.17;235835;1198;25263;-74
2021/11/06 00:59:12;;;;;;;9.50;7.50;;;;;;;5.57;79.04;99658.52;235967;1199;22477;-75
2021/11/06 01:04:21;;;;;;;11.70;7.80;;;;;;;5.57;79.14;99661.48;235896;1193;24074;-75
2021/11/06 01:09:39;;;;;;;12.30;8.40;;;;;;;5.57;78.74;99664.67;235592;1199;24089;-73
2021/11/06 01:14:42;;;;;;;13.40;8.00;;;;;;;5.57;78.63;99664.88;235674;1199;24193;-74
2021/11/06 01:19:45;;;;;;;14.10;8.70;;;;;;;5.56;78.68;99666.30;235711;1198;24028;-72
2021/11/06 01:24:48;;;;;;;14.60;10.00;;;;;;;5.54;78.77;99668.87;235820;1199;24998;-74
2021/11/06 01:29:51;;;;;;;15.90;9.70;;;;;;;5.54;78.51;99666.45;235776;1198;22447;-75
2021/11/06 01:34:53;;;;;;;15.80;10.00;;;;;;;5.52;78.59;99669.88;235425;1199;22877;-74
2021/11/06 01:39:56;;;;;;;18.00;10.80;;;;;;;5.53;78.60;99673.46;235283;1193;26258;-75
2021/11/06 01:44:59;;;;;;;13.90;9.20;;;;;;;5.51;78.34;99669.80;235687;1199;24005;-75
2021/11/06 01:50:02;;;;;;;14.60;10.00;;;;;;;5.50;78.64;99668.24;235434;1199;22531;-74
2021/11/06 01:55:06;;;;;;;19.10;11.00;;;;;;;5.50;78.52;99664.47;235730;1199;22433;-72
2021/11/06 02:00:13;;;;;;;14.80;9.90;;;;;;;5.54;78.67;99666.84;235944;1199;24204;-73
2021/11/06 02:05:18;;;;;;;13.50;9.50;;;;;;;5.54;78.77;99669.13;235917;1199;24038;-72
2021/11/06 02:10:21;;;;;;;14.40;9.70;;;;;;;5.52;78.45;99665.36;235821;1199;24015;-74
2021/11/06 02:15:26;;;;;;;16.40;10.10;;;;;;;5.53;78.51;99671.22;235753;1199;25235;-74
2021/11/06 02:20:29;;;;;;;16.70;10.20;;;;;;;5.55;78.79;99677.11;235827;1199;22484;-74
2021/11/06 02:25:31;;;;;;;14.20;9.30;;;;;;;5.53;78.82;99678.84;235853;1184;25756;-75
2021/11/06 02:31:00;;;;;;;12.30;8.80;;;;;;;5.53;78.51;99670.97;235420;1186;24045;-74
2021/11/06 02:36:18;;;;;;;13.70;9.40;;;;;;;5.55;78.62;99667.98;235411;1193;22459;-72
2021/11/06 02:41:20;;;;;;;13.20;8.80;;;;;;;5.55;78.69;99673.39;235660;1199;23994;-75
2021/11/06 02:46:27;;;;;;;12.40;8.50;;;;;;;5.54;78.63;99670.19;235557;1193;24074;-72
2021/11/06 02:51:30;;;;;;;14.40;8.80;;;;;;;5.53;78.55;99671.55;235793;1199;24200;-75
2021/11/06 02:56:33;;;;;;;12.20;8.50;;;;;;;5.51;78.57;99667.30;235450;1199;24094;-74
2021/11/06 03:01:36;;;;;;;12.00;7.90;;;;;;;5.50;78.88;99669.63;235544;1194;24046;-75
2021/11/06 03:06:40;;;;;;;12.80;7.90;;;;;;;5.47;78.73;99671.10;235807;1199;24091;-73
2021/11/06 03:11:42;;;;;;;8.90;7.30;;;;;;;5.44;78.93;99668.27;235371;1199;24207;-75
2021/11/06 03:16:49;;;;;;;9.90;6.80;;;;;;;5.42;78.79;99673.06;235367;1199;24134;-74
2021/11/06 03:22:12;;;;;;;10.50;7.20;;;;;;;5.38;79.04;99674.88;235557;1199;24056;-75
2021/11/06 03:27:18;;;;;;;8.60;6.50;;;;;;;5.34;79.02;99678.27;235818;1193;24053;-75
2021/11/06 03:32:21;;;;;;;8.00;6.30;;;;;;;5.33;78.83;99683.35;235141;1200;25147;-74
2021/11/06 03:37:23;;;;;;;9.00;6.60;;;;;;;5.34;79.03;99675.00;235400;1198;24057;-75
2021/11/06 03:42:27;;;;;;;8.10;6.30;;;;;;;5.34;78.80;99681.21;235735;1199;24041;-75
2021/11/06 03:47:40;;;;;;;7.50;6.00;;;;;;;5.36;78.86;99688.85;235762;1198;25233;-74
2021/11/06 03:52:56;;;;;;;9.60;6.50;;;;;;;5.39;78.96;99699.02;235662;1193;24049;-75
2021/11/06 03:58:00;;;;;;;8.10;6.30;;;;;;;5.40;79.03;99698.48;235619;1192;24134;-71
2021/11/06 04:03:16;;;;;;;10.50;6.90;;;;;;;5.43;78.72;99699.82;235905;1199;22527;-75
2021/11/06 04:08:28;;;;;;;8.30;6.50;;;;;;;5.44;78.85;99704.86;235915;1199;25154;-74
2021/11/06 04:13:31;;;;;;;9.50;7.20;;;;;;;5.45;78.64;99706.40;235899;1193;24034;-75
2021/11/06 04:18:35;;;;;;;11.10;7.60;;;;;;;5.45;78.60;99709.17;235991;1198;24044;-74
2021/11/06 04:23:38;;;;;;;11.40;7.90;;;;;;;5.44;78.80;99709.20;235923;1192;22440;-74
2021/11/06 04:28:41;;;;;;;10.80;8.10;;;;;;;5.45;78.66;99713.52;235950;1199;24082;-73
2021/11/06 04:33:50;;;;;;;14.10;8.80;;;;;;;5.46;78.68;99721.25;235765;1199;24250;-74
2021/11/06 04:38:53;;;;;;;12.30;8.80;;;;;;;5.46;78.78;99728.26;235827;1198;25168;-74
2021/11/06 04:43:58;;;;;;;11.60;8.40;;;;;;;5.45;78.94;99728.88;235718;1199;22501;-73
2021/11/06 04:49:01;;;;;;;12.10;8.70;;;;;;;5.45;78.65;99735.75;235863;1199;24084;-74
2021/11/06 04:54:03;;;;;;;11.20;8.10;;;;;;;5.46;78.52;99736.80;235506;1199;22423;-74
2021/11/06 04:59:06;;;;;;;10.20;7.70;;;;;;;5.44;78.81;99736.78;235718;1193;22415;-74
2021/11/06 05:04:09;;;;;;;11.10;8.60;;;;;;;5.39;78.62;99741.09;235711;1199;24168;-74
2021/11/06 05:09:15;;;;;;;12.10;8.50;;;;;;;5.29;78.67;99742.55;235490;1199;24084;-75
2021/11/06 05:14:18;;;;;;;13.40;9.30;;;;;;;5.16;78.62;99749.05;235824;1199;24084;-74
2021/11/06 05:19:21;;;;;;;13.30;9.90;;;;;;;5.08;78.72;99751.06;235884;1183;24020;-75
2021/11/06 05:24:25;;;;;;;13.40;9.40;;;;;;;4.99;78.69;99753.77;235973;1199;24059;-75
2021/11/06 05:29:37;;;;;;;15.40;10.20;;;;;;;4.86;78.77;99759.14;235940;1196;24062;-75
2021/11/06 05:34:40;;;;;;;16.20;11.40;;;;;;;4.77;78.70;99763.24;235844;1199;25617;-75
2021/11/06 05:39:43;;;;;;;18.30;11.70;;;;;;;4.65;78.83;99771.52;235470;1199;24052;-73
2021/11/06 05:44:46;;;;;;;17.40;12.10;;;;;;;4.49;78.65;99776.89;235762;1199;24074;-73
2021/11/06 05:49:51;;;;;;;17.70;13.10;;;;;;;4.32;78.83;99781.40;235454;1193;22564;-74
2021/11/06 05:55:16;;;;;;;20.70;14.20;;;;;;;4.11;78.89;99787.50;235477;1192;24047;-73
2021/11/06 06:00:26;;;;;;;23.20;14.80;;;;;;;3.91;79.16;99795.17;235466;1199;22429;-75
2021/11/06 06:05:31;;;;;;;25.80;15.70;;;;;;;3.75;79.33;99800.31;235813;1199;22441;-75
2021/11/06 06:10:34;;;;;;;26.70;16.20;;;;;;;3.66;79.59;99803.32;235486;1199;25146;-74
2021/11/06 06:15:38;;;;;;;28.90;17.20;;;;;;;3.58;79.89;99808.28;235477;1199;22448;-72
2021/11/06 06:20:55;;;;;;;29.30;19.00;;;;;;;3.50;79.92;99816.01;235491;1199;24412;-75
2021/11/06 06:25:57;;;;;;;27.60;17.40;;;;;;;3.48;80.16;99821.16;235408;1199;25094;-73
2021/11/06 06:31:00;;;;;;;21.90;15.40;;;;;;;3.59;80.53;99823.52;235556;1199;24037;-72
2021/11/06 06:36:04;;;;;;;29.50;16.40;;;;;;;3.79;80.98;99826.85;235585;1199;25307;-75
2021/11/06 06:41:07;;;;;;;32.70;18.40;;;;;;;4.06;81.19;99829.95;235784;1199;22547;-74
2021/11/06 06:46:10;;;;;;;26.60;15.70;;;;;;;4.39;81.14;99834.50;235817;1199;24050;-75
2021/11/06 06:51:15;;;;;;;31.60;17.70;;;;;;;4.84;81.11;99844.55;235639;1199;25324;-72
2021/11/06 06:56:18;;;;;;;29.50;16.40;;;;;;;5.34;80.61;99846.05;235911;1199;25222;-73
2021/11/06 07:01:21;;;;;;;24.80;16.80;;;;;;;5.44;79.37;99848.23;236151;1199;24078;-74
2021/11/06 07:06:24;;;;;;;20.60;13.60;;;;;;;5.35;78.87;99842.16;235714;1193;24089;-74
2021/11/06 07:11:27;;;;;;;19.40;12.90;;;;;;;5.19;78.76;99848.03;235810;1199;24012;-74
2021/11/06 07:16:31;;;;;;;20.20;13.30;;;;;;;5.08;78.92;99853.66;236039;1199;24053;-72
2021/11/06 07:21:34;;;;;;;20.50;13.40;;;;;;;5.13;79.36;99852.41;235913;1199;24065;-75
2021/11/06 07:26:36;;;;;;;20.40;12.30;;;;;;;5.33;79.63;99856.63;235551;1193;22651;-75
2021/11/06 07:31:39;;;;;;;16.40;12.40;;;;;;;5.51;79.17;99851.29;235819;1199;22457;-74
2021/11/06 07:36:41;;;;;;;14.80;10.70;;;;;;;5.68;79.17;99855.15;236091;1199;22423;-75
2021/11/06 07:41:44;;;;;;;16.20;11.40;;;;;;;5.86;78.98;99859.34;236057;1193;22463;-75
2021/11/06 07:46:47;;;;;;;16.00;11.50;;;;;;;6.01;78.55;99864.23;235918;1197;25106;-75
2021/11/06 07:51:50;;;;;;;18.90;12.10;;;;;;;6.11;78.32;99870.38;235886;1193;22476;-73
2021/11/06 07:56:53;;;;;;;18.50;11.80;;;;;;;6.25;78.33;99869.71;236038;1199;25165;-74
2021/11/06 08:02:02;;;;;;;19.70;12.20;;;;;;;6.52;77.86;99872.90;236190;1193;24068;-75
2021/11/06 08:07:19;;;;;;;19.40;12.10;;;;;;;6.73;77.33;99874.02;236471;1192;24047;-73
2021/11/06 08:12:39;;;;;;;18.20;11.80;;;;;;;6.74;76.98;99880.54;236157;1183;24047;-72
2021/11/06 08:17:45;;;;;;;18.10;12.00;;;;;;;6.74;76.68;99885.64;236105;1198;25329;-73
2021/11/06 08:22:49;;;;;;;17.00;12.00;;;;;;;6.83;76.69;99883.00;236258;1198;24787;-74
2021/11/06 08:27:54;;;;;;;17.40;11.00;;;;;;;7.10;76.84;99885.92;235533;1200;24066;-74
2021/11/06 08:32:58;;;;;;;17.30;11.60;;;;;;;7.47;76.44;99890.15;235981;1193;24082;-74
2021/11/06 08:38:02;;;;;;;16.50;11.20;;;;;;;7.82;75.88;99887.36;236018;1177;24019;-73
2021/11/06 08:43:04;;;;;;;14.10;9.80;;;;;;;7.94;74.89;99889.59;236039;1199;24928;-74
2021/11/06 08:48:07;;;;;;;16.20;10.30;;;;;;;8.01;74.00;99896.25;236157;1199;22447;-75
2021/11/06 08:53:10;;;;;;;14.50;9.60;;;;;;;8.17;73.90;99892.16;235623;1200;24061;-74
2021/11/06 08:58:12;;;;;;;14.20;9.90;;;;;;;8.46;73.89;99889.86;236147;1199;22442;-74
2021/11/06 09:03:19;;;;;;;11.80;9.50;;;;;;;8.83;73.37;99896.74;236035;1193;23979;-74
2021/11/06 09:08:32;;;;;;;12.90;9.60;;;;;;;9.13;71.41;99896.29;236002;1199;24083;-75
2021/11/06 09:13:34;;;;;;;13.50;9.20;;;;;;;9.37;70.87;99899.74;235919;1199;22464;-72
2021/11/06 09:18:40;;;;;;;10.70;7.70;;;;;;;9.57;70.32;99900.13;235977;1198;24038;-71
2021/11/06 09:23:43;;;;;;;11.20;7.60;;;;;;;9.71;68.79;99905.23;235801;1199;22510;-73
2021/11/06 09:28:59;;;;;;;9.80;7.10;;;;;;;9.77;67.52;99902.12;235333;1200;24066;-72
2021/11/06 09:34:22;;;;;;;9.90;7.60;;;;;;;9.80;67.38;99899.11;235440;1199;25605;-72
2021/11/06 09:39:25;;;;;;;11.90;8.20;;;;;;;10.01;66.70;99901.61;235157;1194;24161;-72
2021/11/06 09:44:31;;;;;;;14.10;9.70;;;;;;;10.08;66.43;99903.44;235867;1199;22427;-71
2021/11/06 09:49:39;;;;;;;11.10;7.60;;;;;;;10.10;66.39;99897.88;235927;1193;25099;-73
2021/11/06 09:55:03;;;;;;;11.40;8.00;;;;;;;10.23;65.57;99897.16;235346;1200;25052;-72
2021/11/06 10:00:08;;;;;;;10.20;7.10;;;;;;;10.32;65.52;99894.98;235526;1200;24689;-72
2021/11/06 10:05:14;;;;;;;9.60;6.90;;;;;;;10.30;65.18;99891.59;235876;1199;22488;-74
2021/11/06 10:10:17;;;;;;;10.00;6.50;;;;;;;10.08;64.35;99885.92;236057;1193;22461;-72
2021/11/06 10:15:23;;;;;;;10.90;7.10;;;;;;;9.85;64.65;99886.84;235854;1177;24069;-74
2021/11/06 10:20:40;;;;;;;9.80;7.00;;;;;;;9.64;65.04;99880.23;236037;1184;24112;-72
2021/11/06 10:26:17;;;;;;;9.30;6.10;;;;;;;9.72;65.49;99870.19;236025;1199;22566;-74
2021/11/06 10:31:20;;;;;;;8.60;6.10;;;;;;;9.89;64.83;99865.45;235883;1186;24105;-74
2021/11/06 10:36:27;;;;;;;8.90;6.40;;;;;;;9.99;64.18;99862.21;235755;1193;24165;-72
2021/11/06 10:41:34;;;;;;;9.60;6.70;;;;;;;10.11;64.07;99860.41;235640;1200;25028;-74
2021/11/06 10:46:36;;;;;;;9.10;6.80;;;;;;;10.22;62.60;99852.98;235853;1199;25115;-74
2021/11/06 10:51:39;;;;;;;9.10;7.00;;;;;;;10.26;62.88;99851.65;235699;1177;22444;-72
2021/11/06 10:56:42;;;;;;;8.80;6.60;;;;;;;10.35;63.37;99841.06;235976;1192;24420;-74
2021/11/06 11:01:53;;;;;;;10.30;7.70;;;;;;;10.43;62.75;99838.65;236074;1199;22419;-72
2021/11/06 11:06:57;;;;;;;9.00;6.40;;;;;;;10.52;62.64;99834.40;235808;1193;22493;-74
2021/11/06 11:12:02;;;;;;;8.40;6.40;;;;;;;10.54;61.77;99834.15;235711;1194;23994;-74
2021/11/06 11:17:06;;;;;;;8.40;6.40;;;;;;;10.55;61.59;99830.92;235707;1199;22501;-74
2021/11/06 11:22:29;;;;;;;10.10;6.40;;;;;;;10.58;61.19;99833.02;235711;1194;22445;-76
2021/11/06 11:27:32;;;;;;;7.20;6.00;;;;;;;10.65;60.34;99830.54;235832;1200;22643;-75
2021/11/06 11:32:34;;;;;;;7.10;5.40;;;;;;;10.71;60.66;99817.42;235847;1200;22550;-72
2021/11/06 11:37:38;;;;;;;7.20;5.70;;;;;;;10.82;60.76;99822.23;235871;1195;25055;-71
2021/11/06 11:42:58;;;;;;;7.70;5.60;;;;;;;10.81;59.02;99814.45;236101;1199;23588;-74
2021/11/06 11:48:09;;;;;;;9.10;5.70;;;;;;;10.77;59.13;99809.30;236104;1199;22564;-73
2021/11/06 11:53:24;;;;;;;7.50;5.60;;;;;;;10.78;58.63;99805.81;236121;1199;24053;-71
2021/11/06 11:58:35;;;;;;;8.80;6.20;;;;;;;10.84;58.83;99805.50;235888;1193;22508;-71
2021/11/06 12:03:41;;;;;;;8.50;5.90;;;;;;;10.93;58.79;99800.00;235718;1192;22471;-72
2021/11/06 12:08:44;;;;;;;5.50;4.30;;;;;;;11.05;58.86;99796.33;235736;1196;25108;-73
2021/11/06 12:13:49;;;;;;;6.70;4.80;;;;;;;11.11;58.17;99792.41;235899;1194;24163;-71
2021/11/06 12:19:00;;;;;;;5.40;4.20;;;;;;;11.14;58.34;99788.60;235813;1199;24191;-71
2021/11/06 12:24:08;;;;;;;6.30;5.10;;;;;;;11.22;57.80;99780.84;236009;1193;24029;-71
2021/11/06 12:29:10;;;;;;;4.30;3.70;;;;;;;11.28;57.76;99777.46;235952;1198;24207;-71
2021/11/06 12:34:43;;;;;;;6.60;4.30;;;;;;;11.30;57.18;99775.20;235983;1193;25160;-71
2021/11/06 12:39:55;;;;;;;6.40;4.60;;;;;;;11.12;56.62;99776.86;235642;1196;25072;-71
2021/11/06 12:45:07;;;;;;;6.30;4.30;;;;;;;10.87;56.96;99767.06;235985;1199;25078;-75
2021/11/06 12:50:25;;;;;;;7.40;4.80;;;;;;;10.64;57.95;99763.27;235885;1199;24059;-72
2021/11/06 12:55:33;;;;;;;6.70;4.80;;;;;;;10.53;58.64;99757.30;235996;1199;24041;-74
2021/11/06 13:00:39;;;;;;;4.90;4.30;;;;;;;10.45;59.11;99757.33;236012;1199;25193;-73
2021/11/06 13:05:47;;;;;;;5.00;3.60;;;;;;;10.34;58.60;99751.11;235631;1195;25270;-74
2021/11/06 13:10:55;;;;;;;4.80;3.60;;;;;;;10.19;59.27;99747.02;236095;1196;24107;-71
2021/11/06 13:15:59;;;;;;;5.50;3.60;;;;;;;10.07;59.66;99743.61;235813;1199;24554;-74
2021/11/06 13:21:02;;;;;;;3.20;2.90;;;;;;;10.08;60.28;99742.54;235741;1199;25164;-71
2021/11/06 13:26:05;;;;;;;4.70;3.70;;;;;;;10.23;60.56;99738.64;235178;1187;22641;-74
2021/11/06 13:31:15;;;;;;;3.90;3.00;;;;;;;10.40;60.27;99731.64;235866;1199;25295;-72
2021/11/06 13:36:18;;;;;;;6.40;4.50;;;;;;;10.59;60.11;99726.40;235964;1198;24040;-71
2021/11/06 13:41:33;;;;;;;5.40;3.50;;;;;;;10.56;58.83;99728.22;235888;1199;24050;-74
2021/11/06 13:46:45;;;;;;;5.20;3.60;;;;;;;10.34;58.92;99721.60;235844;1199;25160;-71
2021/11/06 13:52:00;;;;;;;4.00;3.30;;;;;;;10.13;59.24;99718.46;235771;1199;25814;-73
2021/11/06 13:57:10;;;;;;;5.40;4.20;;;;;;;9.95;59.85;99712.45;235689;1199;22582;-73
2021/11/06 14:02:14;;;;;;;5.30;4.40;;;;;;;9.81;60.42;99708.37;236117;1199;25273;-74
2021/11/06 14:07:23;;;;;;;6.40;4.80;;;;;;;9.76;60.53;99702.30;235804;1199;24180;-73
2021/11/06 14:12:47;;;;;;;7.80;4.90;;;;;;;9.79;60.82;99701.77;236046;1184;24142;-73
2021/11/06 14:17:53;;;;;;;5.40;4.00;;;;;;;9.80;60.92;99704.98;236166;1199;24030;-74
2021/11/06 14:22:56;;;;;;;5.30;3.90;;;;;;;9.78;60.75;99702.31;235943;1199;22539;-73
2021/11/06 14:28:02;;;;;;;5.10;3.80;;;;;;;9.72;60.77;99694.20;235601;1199;22446;-73
2021/11/06 14:33:05;;;;;;;5.70;3.80;;;;;;;9.63;60.54;99694.45;236276;1199;24117;-73
2021/11/06 14:38:08;;;;;;;6.70;4.10;;;;;;;9.51;60.72;99684.40;235886;1196;22468;-74
2021/11/06 14:43:12;;;;;;;3.20;2.80;;;;;;;9.37;60.67;99687.25;235614;1193;24143;-71
2021/11/06 14:48:18;;;;;;;4.30;2.90;;;;;;;9.25;60.63;99688.98;235912;1192;24120;-74
2021/11/06 14:53:21;;;;;;;6.50;4.40;;;;;;;9.12;60.79;99692.95;235629;1200;22577;-73
2021/11/06 14:58:51;;;;;;;6.40;4.60;;;;;;;8.99;60.86;99693.23;235506;1199;24094;-75
2021/11/06 15:03:55;;;;;;;7.10;4.70;;;;;;;8.83;61.13;99692.14;235853;1184;22443;-74
2021/11/06 15:08:58;;;;;;;5.10;4.00;;;;;;;8.65;61.47;99688.29;235840;1199;25203;-76
2021/11/06 15:14:03;;;;;;;17.80;11.70;;;;;;;8.48;61.97;99688.55;235519;1199;25004;-74
2021/11/06 15:19:06;;;;;;;15.30;9.20;;;;;;;8.38;62.47;99692.33;235609;1199;24359;-74
2021/11/06 15:24:16;;;;;;;11.80;6.50;;;;;;;8.22;62.49;99692.58;235977;1193;24085;-74
2021/11/06 15:29:33;;;;;;;11.60;6.20;;;;;;;8.03;63.01;99691.02;235954;1197;22452;-72
2021/11/06 15:34:35;;;;;;;10.40;5.90;;;;;;;7.83;63.08;99691.63;235856;1198;23673;-73
2021/11/06 15:39:40;;;;;;;13.20;7.20;;;;;;;7.65;63.47;99693.81;235905;1197;22490;-71
2021/11/06 15:44:42;;;;;;;13.30;7.80;;;;;;;7.50;64.10;99693.80;235766;1193;24098;-73
2021/11/06 15:49:45;;;;;;;15.80;8.90;;;;;;;7.36;64.46;99696.05;235843;1184;24057;-74
2021/11/06 15:55:01;;;;;;;13.50;7.90;;;;;;;7.21;64.76;99699.41;236128;1199;22452;-72
2021/11/06 16:00:07;;;;;;;15.00;7.60;;;;;;;7.05;64.89;99700.55;235924;1199;23740;-75
2021/11/06 16:05:09;;;;;;;14.50;7.20;;;;;;;6.88;65.18;99695.58;235717;1199;25099;-74
2021/11/06 16:10:12;;;;;;;13.60;8.50;;;;;;;6.78;65.75;99697.70;235873;1199;22521;-71
2021/11/06 16:15:19;;;;;;;17.30;10.90;;;;;;;6.71;66.22;99705.56;236033;1199;22492;-72
2021/11/06 16:20:26;;;;;;;20.00;12.60;;;;;;;6.67;66.67;99703.80;235928;1199;22443;-73
2021/11/06 16:25:30;;;;;;;20.10;12.70;;;;;;;6.62;66.81;99705.30;235565;1193;24105;-74
2021/11/06 16:30:46;;;;;;;22.60;12.50;;;;;;;6.53;66.97;99704.41;235764;1199;24041;-72
2021/11/06 16:35:58;;;;;;;21.60;12.90;;;;;;;6.43;67.19;99707.94;235687;1193;25161;-72
2021/11/06 16:41:01;;;;;;;23.10;13.50;;;;;;;6.29;67.31;99706.63;235764;1198;24069;-74
2021/11/06 16:46:06;;;;;;;26.40;14.00;;;;;;;6.14;67.40;99706.86;235469;1199;23146;-71
2021/11/06 16:51:09;;;;;;;26.10;14.00;;;;;;;5.98;67.60;99705.89;235925;1199;25304;-75
2021/11/06 16:56:15;;;;;;;39.10;21.10;;;;;;;5.84;67.85;99711.82;235239;1200;25385;-75
2021/11/06 17:01:38;;;;;;;42.40;20.90;;;;;;;5.69;68.36;99713.95;235799;1199;22418;-74
2021/11/06 17:06:44;;;;;;;54.40;28.50;;;;;;;5.53;68.36;99714.97;235571;1199;24193;-74
2021/11/06 17:11:47;;;;;;;58.50;31.00;;;;;;;5.42;69.04;99716.59;235945;1177;22431;-75
2021/11/06 17:16:52;;;;;;;62.40;34.10;;;;;;;5.34;69.24;99714.50;235619;1177;24046;-75
2021/11/06 17:21:54;;;;;;;61.10;32.00;;;;;;;5.28;69.97;99722.18;235515;1199;22490;-75
2021/11/06 17:26:57;;;;;;;54.40;27.80;;;;;;;5.23;70.10;99714.94;235755;1193;23991;-75
2021/11/06 17:32:00;;;;;;;55.70;29.40;;;;;;;5.12;70.05;99710.10;235644;1199;25210;-75
2021/11/06 17:37:03;;;;;;;57.00;30.90;;;;;;;4.98;70.38;99702.39;235486;1199;24165;-74
2021/11/06 17:42:06;;;;;;;65.30;32.50;;;;;;;4.88;70.72;99699.65;236002;1199;22857;-75
2021/11/06 17:47:09;;;;;;;70.70;36.30;;;;;;;4.81;70.99;99700.64;235550;1193;24130;-73
2021/11/06 17:52:33;;;;;;;76.20;40.40;;;;;;;4.77;71.58;99703.58;235818;1193;24013;-74
2021/11/06 17:57:36;;;;;;;76.10;39.50;;;;;;;4.71;71.64;99703.58;235764;1199;26583;-72
2021/11/06 18:02:39;;;;;;;80.80;40.40;;;;;;;4.61;71.95;99701.42;235774;1191;24050;-74
2021/11/06 18:07:43;;;;;;;82.60;43.80;;;;;;;4.51;71.98;99696.39;235792;1199;24056;-74
2021/11/06 18:12:47;;;;;;;90.20;45.00;;;;;;;4.35;72.10;99693.41;235937;1199;22896;-72
2021/11/06 18:17:51;;;;;;;67.90;38.70;;;;;;;4.22;72.59;99695.41;235949;1193;25100;-74
2021/11/06 18:22:53;;;;;;;69.90;37.50;;;;;;;4.19;73.08;99685.88;235924;1199;22936;-73
2021/11/06 18:27:56;;;;;;;61.70;33.50;;;;;;;4.21;73.30;99690.83;236035;1198;26255;-74
2021/11/06 18:32:59;;;;;;;59.50;29.90;;;;;;;4.22;73.53;99684.69;235597;1199;22571;-73
2021/11/06 18:38:06;;;;;;;50.80;27.20;;;;;;;4.25;73.71;99682.65;235807;1199;24088;-73
2021/11/06 18:43:08;;;;;;;50.80;26.60;;;;;;;4.25;73.43;99678.72;236063;1193;25189;-74
2021/11/06 18:48:23;;;;;;;46.70;24.10;;;;;;;4.24;73.54;99673.60;235697;1193;22450;-74
2021/11/06 18:53:25;;;;;;;54.80;26.50;;;;;;;4.20;73.43;99669.16;236071;1198;24155;-71
2021/11/06 18:58:28;;;;;;;45.40;24.30;;;;;;;4.18;73.70;99666.29;235834;1199;24078;-73
2021/11/06 19:03:31;;;;;;;45.80;22.60;;;;;;;4.15;73.98;99658.02;235840;1198;22507;-73
2021/11/06 19:08:34;;;;;;;40.30;21.80;;;;;;;4.14;74.10;99660.77;235865;1192;25225;-73
2021/11/06 19:13:50;;;;;;;43.20;21.50;;;;;;;4.14;74.27;99659.35;235931;1192;25448;-75
2021/11/06 19:18:58;;;;;;;42.40;23.20;;;;;;;4.14;74.67;99653.51;235600;1199;25160;-74
2021/11/06 19:24:00;;;;;;;48.60;23.60;;;;;;;4.16;74.82;99652.38;235863;1193;24078;-72
2021/11/06 19:29:04;;;;;;;43.70;23.70;;;;;;;4.17;75.26;99648.07;235520;1193;23991;-74
2021/11/06 19:34:07;;;;;;;42.50;23.20;;;;;;;4.20;75.09;99644.02;235760;1199;24132;-73
2021/11/06 19:39:10;;;;;;;43.90;22.30;;;;;;;4.18;74.96;99635.25;235739;1192;22894;-71
2021/11/06 19:44:14;;;;;;;42.30;22.90;;;;;;;4.11;74.85;99629.09;235570;1198;24057;-72
2021/11/06 19:49:20;;;;;;;48.20;25.10;;;;;;;4.08;75.09;99624.45;235802;1199;25255;-74
2021/11/06 19:54:23;;;;;;;47.50;25.00;;;;;;;4.05;75.26;99619.91;235994;1199;22432;-73
2021/11/06 19:59:26;;;;;;;46.80;25.40;;;;;;;4.00;75.26;99618.08;235452;1199;24069;-74
2021/11/06 20:04:29;;;;;;;45.40;23.80;;;;;;;3.93;75.52;99617.05;235516;1199;22437;-71
2021/11/06 20:09:33;;;;;;;42.90;24.40;;;;;;;3.85;75.21;99610.35;235915;1198;25342;-75
2021/11/06 20:14:36;;;;;;;41.80;25.70;;;;;;;3.79;75.51;99610.34;235476;1193;24187;-75
2021/11/06 20:19:39;;;;;;;45.50;26.80;;;;;;;3.75;75.79;99610.31;235410;1199;22448;-74
2021/11/06 20:24:43;;;;;;;46.10;26.50;;;;;;;3.71;75.76;99604.14;235733;1184;22485;-75
2021/11/06 20:29:47;;;;;;;48.00;26.40;;;;;;;3.60;75.40;99596.01;235645;1199;22514;-72
2021/11/06 20:34:51;;;;;;;50.70;27.20;;;;;;;3.50;75.60;99595.66;235613;1193;24126;-74
2021/11/06 20:39:53;;;;;;;50.90;28.40;;;;;;;3.47;75.94;99596.41;235689;1193;22459;-71
2021/11/06 20:44:56;;;;;;;54.50;29.70;;;;;;;3.46;76.40;99593.69;235961;1192;22449;-72
2021/11/06 20:50:01;;;;;;;57.10;31.00;;;;;;;3.46;76.52;99590.67;235566;1199;25291;-74
2021/11/06 20:55:05;;;;;;;58.80;31.60;;;;;;;3.43;76.41;99587.92;236122;1199;22897;-76
2021/11/06 21:00:15;;;;;;;58.20;32.20;;;;;;;3.34;76.35;99577.67;235579;1193;22469;-72
2021/11/06 21:05:18;;;;;;;55.00;30.00;;;;;;;3.23;76.57;99574.57;235549;1200;24585;-73
2021/11/06 21:10:24;;;;;;;54.80;31.00;;;;;;;3.19;76.81;99570.71;235898;1193;22425;-72
2021/11/06 21:20:32;;;;;;;44.00;25.10;;;;;;;3.15;77.41;99560.80;235881;1193;24158;-74
2021/11/06 21:25:36;;;;;;;40.50;24.50;;;;;;;3.16;77.73;99558.36;235842;1184;24089;-73
2021/11/06 21:30:39;;;;;;;46.30;23.80;;;;;;;3.19;77.93;99559.59;235700;1177;22427;-74
2021/11/06 21:35:42;;;;;;;46.70;25.60;;;;;;;3.19;77.80;99548.43;235961;1193;24187;-74
2021/11/06 21:40:45;;;;;;;51.30;27.40;;;;;;;3.17;77.80;99548.90;235871;1193;22555;-74
2021/11/06 21:45:49;;;;;;;45.90;24.80;;;;;;;3.12;77.87;99536.89;236034;1199;22927;-74
2021/11/06 21:50:51;;;;;;;44.80;26.20;;;;;;;3.08;78.07;99532.50;235548;1184;23969;-73
2021/11/06 21:55:55;;;;;;;47.80;24.90;;;;;;;3.04;78.32;99528.95;235721;1193;24047;-73
2021/11/06 22:00:58;;;;;;;51.40;27.20;;;;;;;3.02;78.49;99522.74;235710;1199;24193;-73
2021/11/06 22:06:01;;;;;;;41.90;22.60;;;;;;;3.02;78.50;99509.07;236103;1194;25215;-72
2021/11/06 22:11:05;;;;;;;43.10;22.90;;;;;;;3.00;78.36;99500.78;235618;1194;25319;-74
2021/11/06 22:16:10;;;;;;;38.60;21.70;;;;;;;2.99;78.17;99489.46;235595;1199;24022;-74
2021/11/06 22:21:18;;;;;;;39.90;21.00;;;;;;;2.99;78.28;99482.34;235520;1193;25322;-75
2021/11/06 22:26:22;;;;;;;38.50;19.70;;;;;;;2.96;78.32;99474.92;235918;1199;24072;-72
2021/11/06 22:31:26;;;;;;;34.50;19.70;;;;;;;2.92;78.18;99473.27;235717;1193;22470;-72
2021/11/06 22:36:29;;;;;;;30.10;17.10;;;;;;;2.90;78.34;99473.69;235769;1199;25212;-75
2021/11/06 22:41:32;;;;;;;31.40;18.50;;;;;;;2.87;78.46;99462.92;235976;1193;24021;-74
2021/11/06 22:46:37;;;;;;;28.00;17.30;;;;;;;2.85;78.52;99446.82;235749;1199;25231;-74
2021/11/06 22:51:41;;;;;;;29.30;16.90;;;;;;;2.84;79.05;99440.23;235833;1199;22487;-72
2021/11/06 22:56:53;;;;;;;29.10;16.20;;;;;;;2.91;79.83;99434.38;235563;1199;25208;-73
2021/11/06 23:01:56;;;;;;;27.30;15.40;;;;;;;3.00;79.80;99436.40;235767;1199;22551;-72
2021/11/06 23:06:59;;;;;;;29.10;16.70;;;;;;;3.04;79.49;99428.65;235408;1192;22452;-74
2021/11/06 23:12:02;;;;;;;26.00;14.40;;;;;;;3.04;79.72;99411.55;235827;1198;24056;-73
2021/11/06 23:17:05;;;;;;;25.70;13.90;;;;;;;3.06;79.67;99401.98;235614;1199;24991;-72
2021/11/06 23:22:09;;;;;;;26.70;14.60;;;;;;;3.07;79.65;99396.08;235856;1199;24062;-72
2021/11/06 23:27:11;;;;;;;24.30;14.40;;;;;;;3.07;79.76;99381.62;235801;1199;24054;-72
2021/11/06 23:32:14;;;;;;;24.00;14.20;;;;;;;3.09;79.70;99382.36;235738;1199;22437;-75
2021/11/06 23:37:18;;;;;;;26.00;15.10;;;;;;;3.12;79.76;99379.31;235689;1199;25394;-74
2021/11/06 23:42:21;;;;;;;23.80;13.40;;;;;;;3.12;79.62;99375.68;235700;1199;23985;-73